Terminal Aerodrome Forecast
Issued by NWS Charleston, WV

Home | Current Version | Previous Version | Text Only | Print | Product List | Glossary On
Versions: 1 2 3 4 5 6 7 8 9 10 11 12 13 14 15 16 17 18 19 20 21 22 23 24 25 26 27 28 29 30 31 32
000
FTUS41 KRLX 201700 RRA
TAFCRW
TAF
KCRW 201741Z 2018/2118 22007KT P6SM BKN080
     FM202000 22006KT P6SM SCT060
     FM202300 00000KT P6SM SCT100
     FM210000 00000KT P6SM BKN090
     FM210300 00000KT P6SM BKN050
     FM210700 VRB03KT P6SM BKN025
     FM211000 27004KT P6SM BKN035
     FM211700 29006KT P6SM OVC030=

USA.gov is the U.S. government's official web portal to all federal, state and local government web resources and services.